Time;durP1;ratioP1;P1;durP2;ratioP2;P2;SDS_P1;SDS_P2;PMS_P1;PMS_P2;Temp;Humidity;BMP_temperature;BMP_pressure;BME280_temperature;BME280_humidity;BME280_pressure;Samples;Min_cycle;Max_cycle;Signal;HPM_P1;HPM_P2
2021/05/28 00:00:51;;;;;;;8.25;6.38;;;;;;;17.34;68.41;94457.03;2959781;40;20091;-83
2021/05/28 00:02:53;;;;;;;9.02;6.50;;;;;;;17.35;68.29;94451.50;2957970;40;20061;-82
2021/05/28 00:04:55;;;;;;;9.57;6.93;;;;;;;17.35;68.31;94445.41;2957645;40;20060;-81
2021/05/28 00:06:57;;;;;;;8.23;6.13;;;;;;;17.35;68.20;94440.91;2957986;40;20063;-87
2021/05/28 00:08:58;;;;;;;8.05;6.43;;;;;;;17.39;68.11;94441.34;2957709;40;20064;-83
2021/05/28 00:11:00;;;;;;;7.47;6.43;;;;;;;17.43;67.84;94445.19;2959170;40;20056;-83
2021/05/28 00:13:02;;;;;;;11.18;7.22;;;;;;;17.43;67.97;94445.19;2958067;40;20573;-83
2021/05/28 00:15:06;;;;;;;7.10;6.28;;;;;;;17.45;67.93;94445.00;2949944;40;20069;-86
2021/05/28 00:17:08;;;;;;;7.05;6.07;;;;;;;17.44;68.55;94446.81;2957618;40;20048;-81
2021/05/28 00:19:10;;;;;;;9.52;6.28;;;;;;;17.50;68.80;94445.19;2958553;40;20130;-81
2021/05/28 00:21:12;;;;;;;9.43;6.28;;;;;;;17.53;68.52;94444.75;2955209;40;20089;-82
2021/05/28 00:23:13;;;;;;;8.45;6.25;;;;;;;17.52;68.42;94438.66;2959355;40;20102;-81
2021/05/28 00:25:15;;;;;;;9.95;6.22;;;;;;;17.54;68.40;94420.72;2953444;40;20088;-81
2021/05/28 00:27:17;;;;;;;6.10;5.50;;;;;;;17.56;68.24;94418.66;2952942;40;20073;-81
2021/05/28 00:29:19;;;;;;;8.85;5.45;;;;;;;17.54;68.32;94406.66;2953409;40;20103;-83
2021/05/28 00:31:21;;;;;;;8.80;5.90;;;;;;;17.51;68.52;94402.59;2958314;40;20380;-82
2021/05/28 00:33:23;;;;;;;8.93;5.63;;;;;;;17.45;68.61;94392.84;2965940;40;20088;-82
2021/05/28 00:35:24;;;;;;;6.78;5.53;;;;;;;17.39;68.63;94397.13;2951696;40;20065;-83
2021/05/28 00:37:26;;;;;;;8.70;5.78;;;;;;;17.35;68.96;94397.75;2955102;40;20217;-81
2021/05/28 00:39:28;;;;;;;7.03;6.05;;;;;;;17.30;69.24;94401.03;2954605;40;20214;-81
2021/05/28 00:41:30;;;;;;;9.57;6.20;;;;;;;17.28;69.28;94410.22;2957321;40;20142;-80
2021/05/28 00:43:32;;;;;;;11.63;6.43;;;;;;;17.17;69.55;94409.81;2953391;40;20118;-83
2021/05/28 00:45:33;;;;;;;10.07;5.82;;;;;;;17.11;69.81;94402.69;2950096;40;20142;-81
2021/05/28 00:47:35;;;;;;;11.18;7.07;;;;;;;17.09;69.83;94401.28;2951873;40;20065;-81
2021/05/28 00:49:37;;;;;;;8.52;6.20;;;;;;;17.08;70.08;94392.53;2956448;40;20056;-81
2021/05/28 00:51:39;;;;;;;7.88;6.22;;;;;;;17.08;70.07;94399.63;2960217;40;20148;-81
2021/05/28 00:53:41;;;;;;;10.00;6.75;;;;;;;17.04;70.29;94399.25;2959423;40;20052;-81
2021/05/28 00:55:44;;;;;;;10.93;7.20;;;;;;;17.04;70.00;94398.44;2952417;40;20365;-81
2021/05/28 00:57:45;;;;;;;8.68;7.00;;;;;;;17.05;70.31;94400.06;2961372;40;20141;-81
2021/05/28 00:59:51;;;;;;;13.63;7.10;;;;;;;16.91;71.04;94394.78;2961884;40;20110;-81
2021/05/28 01:01:54;;;;;;;11.55;8.23;;;;;;;16.66;71.93;94393.75;2963926;40;20070;-80
2021/05/28 01:03:56;;;;;;;11.13;7.83;;;;;;;16.62;72.09;94393.34;2963160;40;20380;-81
2021/05/28 01:05:58;;;;;;;8.52;6.80;;;;;;;16.68;72.08;94389.09;2961313;40;20083;-82
2021/05/28 01:07:59;;;;;;;9.05;6.88;;;;;;;16.73;72.16;94391.91;2956465;40;20049;-84
2021/05/28 01:10:02;;;;;;;11.60;8.35;;;;;;;16.66;72.43;94386.63;2959461;40;20092;-83
2021/05/28 01:12:04;;;;;;;9.35;7.45;;;;;;;16.66;72.42;94394.56;2959790;40;20053;-81
2021/05/28 01:14:06;;;;;;;10.95;7.82;;;;;;;16.68;72.09;94389.88;2960320;40;20060;-83
2021/05/28 01:16:08;;;;;;;9.95;7.75;;;;;;;16.77;71.91;94391.31;2965764;40;20153;-82
2021/05/28 01:18:10;;;;;;;8.68;6.93;;;;;;;16.86;71.52;94396.41;2960098;40;20052;-83
2021/05/28 01:20:12;;;;;;;17.67;8.70;;;;;;;16.92;71.26;94401.69;2959913;40;20092;-82
2021/05/28 01:22:17;;;;;;;9.95;8.68;;;;;;;16.86;71.38;94401.72;2956204;40;20053;-81
2021/05/28 01:24:20;;;;;;;11.65;8.15;;;;;;;16.80;71.23;94398.06;2959493;40;20075;-81
2021/05/28 01:26:22;;;;;;;9.18;7.05;;;;;;;16.73;71.03;94400.66;2954402;40;20115;-82
2021/05/28 01:28:24;;;;;;;8.32;7.07;;;;;;;16.68;71.01;94405.75;2960354;40;20056;-81
2021/05/28 01:30:26;;;;;;;12.30;6.95;;;;;;;16.66;70.93;94399.84;2963096;40;20142;-85
2021/05/28 01:32:28;;;;;;;9.65;6.38;;;;;;;16.62;70.95;94396.00;2960191;40;20060;-83
2021/05/28 01:34:30;;;;;;;9.35;6.18;;;;;;;16.60;71.05;94395.38;2962107;40;20082;-82
2021/05/28 01:36:31;;;;;;;9.13;6.32;;;;;;;16.63;71.00;94396.78;2959460;40;20043;-81
2021/05/28 01:38:33;;;;;;;6.93;6.20;;;;;;;16.65;70.65;94387.66;2960225;40;20060;-82
2021/05/28 01:40:35;;;;;;;9.40;6.28;;;;;;;16.64;70.79;94391.31;2961555;40;20061;-83
2021/05/28 01:42:37;;;;;;;9.65;6.78;;;;;;;16.64;70.88;94390.50;2958687;40;20170;-82
2021/05/28 01:44:39;;;;;;;9.50;6.32;;;;;;;16.64;71.00;94383.38;2962068;40;20088;-80
2021/05/28 01:46:41;;;;;;;8.30;6.07;;;;;;;16.65;70.60;94382.38;2959710;40;20057;-80
2021/05/28 01:48:43;;;;;;;9.27;6.57;;;;;;;16.66;70.44;94378.69;2961301;40;20355;-83
2021/05/28 01:50:45;;;;;;;7.75;5.97;;;;;;;16.67;70.43;94377.69;2957026;40;20061;-81
2021/05/28 01:52:46;;;;;;;10.40;6.10;;;;;;;16.70;70.49;94371.19;2957468;40;20134;-81
2021/05/28 01:54:48;;;;;;;10.60;6.80;;;;;;;16.71;70.73;94368.34;2960446;40;20282;-81
2021/05/28 01:56:50;;;;;;;12.38;6.57;;;;;;;16.71;70.87;94357.75;2961127;40;20141;-82
2021/05/28 01:58:52;;;;;;;8.27;6.35;;;;;;;16.72;70.90;94372.59;2961352;40;20331;-81
2021/05/28 02:00:58;;;;;;;8.70;6.03;;;;;;;16.76;70.75;94365.06;2958787;40;20233;-81
2021/05/28 02:02:59;;;;;;;7.20;6.03;;;;;;;16.76;70.58;94368.53;2960119;40;20147;-82
2021/05/28 02:05:01;;;;;;;9.77;6.43;;;;;;;16.79;70.41;94369.94;2959126;40;20114;-81
2021/05/28 02:07:03;;;;;;;7.38;5.90;;;;;;;16.80;70.54;94361.03;2949881;40;20057;-81
2021/05/28 02:09:05;;;;;;;10.70;6.97;;;;;;;16.81;70.45;94367.13;2960023;40;20137;-81
2021/05/28 02:11:07;;;;;;;10.30;5.97;;;;;;;16.83;70.44;94365.09;2959922;40;20053;-82
2021/05/28 02:13:09;;;;;;;11.10;6.82;;;;;;;16.77;70.57;94362.19;2959018;40;20069;-81
2021/05/28 02:15:11;;;;;;;9.45;6.15;;;;;;;16.79;70.74;94357.53;2959082;40;20395;-82
2021/05/28 02:17:13;;;;;;;11.10;6.50;;;;;;;16.82;70.83;94355.50;2957573;40;20372;-70
2021/05/28 02:19:14;;;;;;;9.68;7.63;;;;;;;16.84;70.91;94353.47;2958909;40;20045;-70
2021/05/28 02:21:16;;;;;;;9.18;6.07;;;;;;;16.83;70.79;94349.22;2959069;40;20056;-70
2021/05/28 02:23:19;;;;;;;7.80;6.22;;;;;;;16.83;70.77;94346.56;2958943;40;20104;-71
2021/05/28 02:25:20;;;;;;;7.57;6.32;;;;;;;16.85;70.75;94344.53;2959270;40;20057;-72
2021/05/28 02:27:22;;;;;;;10.77;6.40;;;;;;;16.90;70.59;94350.00;2957469;40;20085;-70
2021/05/28 02:29:25;;;;;;;7.97;6.20;;;;;;;16.90;70.58;94342.06;2953985;40;20046;-70
2021/05/28 02:31:27;;;;;;;8.05;6.45;;;;;;;16.86;70.29;94344.31;2958072;40;20521;-71
2021/05/28 02:33:29;;;;;;;9.60;6.35;;;;;;;16.89;70.34;94341.28;2959276;40;20060;-70
2021/05/28 02:35:30;;;;;;;8.48;6.82;;;;;;;16.89;70.79;94332.53;2959106;40;20403;-70
2021/05/28 02:37:32;;;;;;;9.50;6.68;;;;;;;16.92;70.70;94340.03;2953741;40;20290;-70
2021/05/28 02:39:34;;;;;;;9.25;6.32;;;;;;;16.95;70.27;94344.91;2956941;40;20055;-72
2021/05/28 02:41:36;;;;;;;11.85;5.97;;;;;;;16.99;70.30;94352.25;2958502;40;20380;-71
2021/05/28 02:43:38;;;;;;;9.85;6.90;;;;;;;16.97;70.23;94351.63;2958203;40;20056;-71
2021/05/28 02:45:39;;;;;;;8.63;6.55;;;;;;;16.99;70.25;94354.06;2957616;40;20341;-70
2021/05/28 02:47:41;;;;;;;7.57;5.75;;;;;;;16.96;69.97;94363.22;2957460;40;20057;-70
2021/05/28 02:49:43;;;;;;;8.73;5.97;;;;;;;16.93;70.23;94366.28;2957866;40;20096;-70
2021/05/28 02:51:44;;;;;;;6.80;5.78;;;;;;;16.95;70.45;94358.97;2957645;40;20130;-72
2021/05/28 02:53:46;;;;;;;12.52;6.30;;;;;;;16.95;70.68;94361.63;2956971;40;20068;-71
2021/05/28 02:55:48;;;;;;;8.20;6.32;;;;;;;16.96;70.59;94363.22;2955388;40;20085;-83
2021/05/28 02:57:50;;;;;;;9.60;6.75;;;;;;;16.96;70.20;94371.16;2959923;40;20146;-82
2021/05/28 02:59:51;;;;;;;8.60;6.75;;;;;;;16.95;70.21;94384.59;2960220;40;20057;-82
2021/05/28 03:01:53;;;;;;;10.48;6.47;;;;;;;16.96;70.27;94380.94;2946202;40;20087;-81
2021/05/28 03:03:55;;;;;;;10.65;6.13;;;;;;;16.90;70.13;94384.41;2956986;40;20139;-82
2021/05/28 03:05:57;;;;;;;8.57;6.10;;;;;;;16.89;70.23;94380.16;2959835;40;20056;-82
2021/05/28 03:07:58;;;;;;;9.02;6.65;;;;;;;16.89;70.24;94380.97;2961035;40;20064;-82
2021/05/28 03:10:00;;;;;;;8.00;6.13;;;;;;;16.84;70.39;94385.22;2956672;40;20061;-81
2021/05/28 03:12:02;;;;;;;9.73;6.35;;;;;;;16.78;70.94;94382.34;2956867;40;20045;-82
2021/05/28 03:14:04;;;;;;;10.57;5.68;;;;;;;16.77;70.29;94383.38;2955243;40;20142;-82
2021/05/28 03:16:07;;;;;;;7.40;6.45;;;;;;;16.81;70.44;94390.94;2959531;40;20255;-82
2021/05/28 03:18:16;;;;;;;8.18;5.97;;;;;;;16.85;70.37;94394.81;2960152;40;20059;-82
2021/05/28 03:20:28;;;;;;;11.60;6.00;;;;;;;16.87;70.26;94390.13;2958909;40;20097;-84
2021/05/28 03:22:36;;;;;;;7.97;5.80;;;;;;;16.90;70.40;94387.06;2960172;40;20429;-81
2021/05/28 03:24:38;;;;;;;8.63;6.03;;;;;;;16.91;69.95;94380.75;2956375;40;20109;-82
2021/05/28 03:26:40;;;;;;;8.65;5.88;;;;;;;16.88;70.54;94386.44;2958673;40;20584;-69
2021/05/28 03:28:41;;;;;;;10.80;6.32;;;;;;;16.92;70.37;94379.72;2958865;40;20061;-70
2021/05/28 03:30:43;;;;;;;8.55;5.82;;;;;;;16.97;70.03;94382.56;2958666;40;20125;-82
2021/05/28 03:32:45;;;;;;;8.27;5.85;;;;;;;17.01;69.71;94375.03;2959410;40;20129;-80
2021/05/28 03:34:47;;;;;;;7.72;6.07;;;;;;;17.01;70.09;94383.78;2958084;40;20056;-81
2021/05/28 03:36:50;;;;;;;9.23;7.20;;;;;;;16.95;69.73;94395.19;2957116;40;20065;-83
2021/05/28 03:38:51;;;;;;;8.68;5.80;;;;;;;16.78;70.71;94400.06;2955482;40;20138;-81
2021/05/28 03:41:11;;;;;;;7.53;6.45;;;;;;;16.64;71.34;94420.41;2958847;40;20137;-81
2021/05/28 03:43:13;;;;;;;9.13;6.68;;;;;;;16.57;71.84;94419.59;2958528;40;20057;-82
2021/05/28 03:45:15;;;;;;;9.50;6.40;;;;;;;16.51;71.65;94425.69;2961845;40;20061;-81
2021/05/28 03:47:18;;;;;;;10.88;5.57;;;;;;;16.49;71.93;94428.53;2958627;40;20071;-81
2021/05/28 03:49:19;;;;;;;10.13;6.53;;;;;;;16.05;73.40;94432.53;2957733;40;20487;-82
2021/05/28 03:51:21;;;;;;;12.32;6.45;;;;;;;15.57;75.66;94435.97;2958859;40;20215;-82
2021/05/28 03:53:23;;;;;;;9.50;6.78;;;;;;;15.28;77.55;94431.75;2957737;40;20085;-83
2021/05/28 03:55:25;;;;;;;9.82;6.75;;;;;;;15.38;77.18;94434.06;2959742;40;20114;-83
2021/05/28 03:57:26;;;;;;;9.90;7.10;;;;;;;15.26;77.47;94431.13;2958300;40;20065;-83
2021/05/28 03:59:29;;;;;;;12.02;7.65;;;;;;;15.53;76.55;94424.19;2959522;40;20051;-83
2021/05/28 04:01:31;;;;;;;14.63;7.60;;;;;;;15.68;76.01;94425.84;2962394;40;20061;-82
2021/05/28 04:03:33;;;;;;;8.88;7.47;;;;;;;15.55;75.64;94426.59;2958228;40;20134;-82
2021/05/28 04:05:35;;;;;;;9.02;6.95;;;;;;;15.55;75.61;94421.31;2956426;40;20060;-83
2021/05/28 04:07:37;;;;;;;11.00;7.18;;;;;;;15.50;75.41;94418.47;2955806;40;20130;-83
2021/05/28 04:09:39;;;;;;;11.60;7.68;;;;;;;15.41;75.60;94414.38;2957537;40;20068;-83
2021/05/28 04:11:40;;;;;;;12.00;7.55;;;;;;;15.45;76.26;94412.97;2958672;40;20369;-81
2021/05/28 04:13:42;;;;;;;9.77;6.97;;;;;;;15.68;75.95;94407.38;2959451;40;20071;-83
2021/05/28 04:15:44;;;;;;;9.75;7.80;;;;;;;15.91;74.37;94405.25;2960800;40;20218;-84
2021/05/28 04:17:46;;;;;;;9.82;6.90;;;;;;;16.05;73.75;94397.38;2958298;40;20064;-84
2021/05/28 04:19:47;;;;;;;9.65;6.88;;;;;;;16.19;72.92;94391.06;2959673;40;20061;-82
2021/05/28 04:21:49;;;;;;;10.10;7.63;;;;;;;16.26;72.99;94385.78;2959124;40;20055;-81
2021/05/28 04:23:51;;;;;;;8.93;7.28;;;;;;;16.23;72.99;94399.44;2958384;40;20149;-82
2021/05/28 04:25:52;;;;;;;12.00;6.85;;;;;;;16.31;72.29;94399.25;2958347;40;20400;-82
2021/05/28 04:27:54;;;;;;;10.25;6.85;;;;;;;16.16;73.10;94399.41;2959967;40;20085;-82
2021/05/28 04:29:56;;;;;;;12.35;7.65;;;;;;;15.93;73.71;94394.47;2959581;40;20137;-83
2021/05/28 04:31:58;;;;;;;7.90;6.97;;;;;;;15.73;74.04;94395.25;2960103;40;20065;-82
2021/05/28 04:33:59;;;;;;;11.25;7.90;;;;;;;15.65;74.70;94405.13;2960915;40;20049;-83
2021/05/28 04:36:01;;;;;;;10.63;7.47;;;;;;;15.77;74.80;94399.13;2959023;40;20071;-82
2021/05/28 04:38:03;;;;;;;14.80;7.68;;;;;;;15.85;74.71;94398.13;2961034;40;20057;-81
2021/05/28 04:40:05;;;;;;;10.88;7.35;;;;;;;15.43;75.55;94397.31;2961281;40;20057;-82
2021/05/28 04:42:07;;;;;;;11.50;7.90;;;;;;;15.38;76.46;94397.09;2954832;40;20065;-83
2021/05/28 04:44:09;;;;;;;9.18;7.40;;;;;;;15.66;76.03;94401.47;2958492;40;20167;-84
2021/05/28 04:46:10;;;;;;;9.93;7.28;;;;;;;15.94;74.73;94398.78;2953405;40;20476;-82
2021/05/28 04:48:12;;;;;;;10.52;7.53;;;;;;;16.18;73.94;94398.19;2959111;40;20303;-84
2021/05/28 04:50:14;;;;;;;11.10;7.57;;;;;;;16.38;72.72;94400.06;2956213;40;20422;-83
2021/05/28 04:52:15;;;;;;;6.80;5.68;;;;;;;16.57;71.97;94393.16;2955212;40;20504;-85
2021/05/28 04:54:17;;;;;;;10.32;6.90;;;;;;;16.71;71.52;94397.44;2954525;40;20093;-84
2021/05/28 04:56:19;;;;;;;9.95;6.63;;;;;;;16.88;70.92;94397.84;2946099;40;20114;-83
2021/05/28 04:58:21;;;;;;;8.52;6.70;;;;;;;16.81;71.31;94406.81;2959322;40;20224;-84
2021/05/28 05:00:23;;;;;;;10.05;7.65;;;;;;;16.43;72.60;94412.66;2959741;40;20282;-82
2021/05/28 05:02:25;;;;;;;12.25;7.57;;;;;;;16.07;73.83;94409.38;2958465;40;20433;-84
2021/05/28 05:04:27;;;;;;;13.43;8.48;;;;;;;16.01;75.22;94414.63;2958786;40;20077;-82
2021/05/28 05:06:28;;;;;;;13.55;9.55;;;;;;;15.94;75.25;94415.44;2962368;40;20075;-81
2021/05/28 05:08:31;;;;;;;18.63;9.85;;;;;;;15.80;76.09;94415.59;2959186;40;20061;-83
2021/05/28 05:10:32;;;;;;;12.45;9.48;;;;;;;15.64;76.87;94416.69;2962065;40;20052;-82
2021/05/28 05:12:34;;;;;;;12.70;9.13;;;;;;;15.59;77.05;94419.13;2950630;40;20375;-84
2021/05/28 05:14:36;;;;;;;13.32;9.23;;;;;;;15.53;77.70;94418.91;2956620;40;20063;-83
2021/05/28 05:16:38;;;;;;;14.93;8.75;;;;;;;15.73;77.19;94420.84;2959511;40;20104;-87
2021/05/28 05:18:45;;;;;;;13.27;8.25;;;;;;;15.61;77.35;94423.19;2947372;40;20136;-87
2021/05/28 05:20:47;;;;;;;11.13;8.48;;;;;;;15.72;77.46;94424.47;2958209;40;20065;-83
2021/05/28 05:22:49;;;;;;;10.15;8.25;;;;;;;15.76;76.47;94434.44;2962507;40;20057;-81
2021/05/28 05:24:51;;;;;;;11.27;7.78;;;;;;;15.67;75.96;94437.44;2958361;40;20069;-71
2021/05/28 05:26:53;;;;;;;10.98;7.43;;;;;;;15.77;76.42;94435.28;2956952;40;20057;-69
2021/05/28 05:28:55;;;;;;;9.45;6.72;;;;;;;16.04;75.33;94438.81;2957813;40;20345;-69
2021/05/28 05:30:57;;;;;;;6.43;5.13;;;;;;;15.90;74.61;94439.81;2956947;40;20111;-72
2021/05/28 05:32:59;;;;;;;8.15;5.25;;;;;;;16.13;73.94;94439.44;2959397;40;20302;-84
2021/05/28 05:35:00;;;;;;;6.93;5.13;;;;;;;16.17;73.24;94440.69;2958590;40;20080;-82
2021/05/28 05:37:02;;;;;;;7.25;5.65;;;;;;;16.24;73.57;94446.81;2961231;40;20368;-83
2021/05/28 05:39:04;;;;;;;10.52;5.72;;;;;;;16.34;73.45;94441.13;2960480;40;20052;-83
2021/05/28 05:41:06;;;;;;;8.70;5.03;;;;;;;16.59;72.45;94446.66;2960321;40;20050;-87
2021/05/28 05:43:07;;;;;;;5.40;4.00;;;;;;;16.78;71.59;94442.41;2958787;40;20063;-83
2021/05/28 05:45:11;;;;;;;6.05;4.15;;;;;;;17.02;69.41;94448.94;2959204;40;20080;-84
2021/05/28 05:47:12;;;;;;;5.55;3.63;;;;;;;17.11;68.25;94446.88;2960190;40;20097;-82
2021/05/28 05:49:15;;;;;;;5.75;3.70;;;;;;;17.12;67.69;94453.78;2961709;40;20141;-86
2021/05/28 05:51:16;;;;;;;4.85;3.63;;;;;;;17.24;67.35;94449.50;2960432;40;20334;-87
2021/05/28 05:53:18;;;;;;;4.22;3.03;;;;;;;17.42;66.83;94453.34;2961278;40;20253;-88
2021/05/28 05:55:22;;;;;;;4.75;3.92;;;;;;;17.53;66.15;94453.53;2957602;40;20122;-86
2021/05/28 05:57:24;;;;;;;9.40;4.25;;;;;;;17.60;66.22;94445.56;2959825;40;20461;-87
2021/05/28 05:59:28;;;;;;;4.63;3.60;;;;;;;17.07;68.38;94450.94;2960600;40;20330;-84
2021/05/28 06:01:30;;;;;;;6.57;3.50;;;;;;;17.18;67.26;94448.47;2957087;40;20414;-85
2021/05/28 06:03:32;;;;;;;5.63;3.50;;;;;;;17.40;67.41;94454.38;2959858;40;20056;-84
2021/05/28 06:05:34;;;;;;;5.28;3.00;;;;;;;17.44;65.63;94449.47;2960526;40;20437;-86
2021/05/28 06:07:39;;;;;;;5.00;2.80;;;;;;;17.52;65.37;94459.84;2959979;40;20053;-87
2021/05/28 06:09:41;;;;;;;7.55;2.60;;;;;;;17.02;66.13;94451.56;2955401;40;20224;-83
2021/05/28 06:11:42;;;;;;;2.72;2.35;;;;;;;16.82;67.10;94448.94;2960166;40;20049;-82
2021/05/28 06:13:46;;;;;;;4.80;3.30;;;;;;;16.63;68.34;94447.03;2960106;40;20056;-83
2021/05/28 06:15:48;;;;;;;4.35;3.30;;;;;;;16.66;68.97;94451.94;2958670;40;20060;-82
2021/05/28 06:17:49;;;;;;;4.38;2.80;;;;;;;16.95;68.42;94437.50;2961488;40;20059;-85
2021/05/28 06:19:52;;;;;;;4.57;2.58;;;;;;;17.05;66.62;94445.06;2961014;40;20088;-86
2021/05/28 06:21:58;;;;;;;4.35;2.70;;;;;;;17.31;66.42;94441.53;2951429;40;20410;-82
2021/05/28 06:24:00;;;;;;;6.53;2.58;;;;;;;17.54;66.25;94449.03;2958374;40;20064;-84
2021/05/28 06:26:03;;;;;;;4.72;3.40;;;;;;;17.79;65.09;94449.97;2958099;40;20064;-86
2021/05/28 06:28:05;;;;;;;4.10;2.90;;;;;;;17.98;64.42;94450.13;2961453;40;20060;-85
2021/05/28 06:30:07;;;;;;;6.47;2.85;;;;;;;17.90;63.64;94448.53;2956175;40;20115;-83
2021/05/28 06:32:09;;;;;;;4.10;2.83;;;;;;;17.95;63.10;94456.66;2960308;40;20057;-85
2021/05/28 06:34:10;;;;;;;3.50;2.28;;;;;;;17.98;63.11;94447.47;2958722;40;20057;-82
2021/05/28 06:36:12;;;;;;;6.13;2.78;;;;;;;18.03;63.62;94452.16;2958401;40;20304;-83
2021/05/28 06:38:14;;;;;;;6.00;2.92;;;;;;;17.59;65.74;94465.94;2958339;40;20449;-81
2021/05/28 06:40:16;;;;;;;5.35;2.72;;;;;;;17.69;65.83;94462.03;2960211;40;20463;-84
2021/05/28 06:42:18;;;;;;;3.67;2.88;;;;;;;17.81;65.85;94458.53;2953761;40;20267;-87
2021/05/28 06:44:25;;;;;;;4.55;2.35;;;;;;;17.65;66.71;94458.19;2961119;40;20072;-82
2021/05/28 06:46:27;;;;;;;6.18;2.90;;;;;;;17.77;66.37;94453.88;2959116;40;20421;-84
2021/05/28 06:48:29;;;;;;;5.15;3.13;;;;;;;17.61;65.51;94458.56;2957423;40;20073;-83
2021/05/28 06:50:31;;;;;;;5.82;2.83;;;;;;;17.73;65.70;94450.00;2958878;40;20058;-83
2021/05/28 06:52:33;;;;;;;4.35;2.63;;;;;;;18.03;65.34;94447.66;2960224;40;20057;-84
2021/05/28 06:54:35;;;;;;;3.28;2.83;;;;;;;18.30;63.87;94448.31;2960045;40;20150;-83
2021/05/28 06:56:36;;;;;;;6.68;2.78;;;;;;;18.50;62.65;94444.72;2958661;40;20419;-83
2021/05/28 06:58:38;;;;;;;7.03;3.03;;;;;;;18.70;62.27;94436.66;2960169;40;20096;-83
2021/05/28 07:00:40;;;;;;;8.20;3.03;;;;;;;19.05;61.29;94439.66;2951155;40;20061;-84
2021/05/28 07:02:42;;;;;;;3.80;2.50;;;;;;;19.11;59.28;94441.44;2959819;40;20092;-85
2021/05/28 07:04:44;;;;;;;3.28;2.13;;;;;;;19.07;59.31;94442.91;2959380;40;20133;-82
2021/05/28 07:06:46;;;;;;;3.58;1.98;;;;;;;19.20;58.76;94431.34;2954663;40;20151;-84
2021/05/28 07:08:48;;;;;;;5.60;2.70;;;;;;;19.16;58.95;94436.28;2946222;40;20115;-85
2021/05/28 07:10:50;;;;;;;4.90;2.53;;;;;;;18.85;59.34;94447.00;2958732;40;20710;-84
2021/05/28 07:12:52;;;;;;;5.03;2.53;;;;;;;18.83;57.99;94444.53;2960625;40;20102;-83
2021/05/28 07:14:54;;;;;;;7.70;3.30;;;;;;;19.01;57.71;94446.44;2951426;40;20053;-83
2021/05/28 07:16:56;;;;;;;6.07;2.97;;;;;;;18.66;58.32;94444.22;2955805;40;20313;-84
2021/05/28 07:18:58;;;;;;;5.40;2.65;;;;;;;18.60;58.20;94453.84;2959152;40;20073;-82
2021/05/28 07:20:59;;;;;;;3.92;2.72;;;;;;;18.56;57.66;94454.50;2957106;40;20057;-81
2021/05/28 07:23:01;;;;;;;7.93;2.80;;;;;;;18.67;57.21;94455.66;2961793;40;20068;-82
2021/05/28 07:25:04;;;;;;;3.00;2.30;;;;;;;18.55;57.10;94444.94;2963694;40;20061;-82
2021/05/28 07:27:06;;;;;;;6.55;2.92;;;;;;;18.66;57.06;94443.44;2959807;40;20078;-82
2021/05/28 07:29:07;;;;;;;4.70;2.67;;;;;;;18.73;56.22;94447.63;2963186;40;20068;-82
2021/05/28 07:31:10;;;;;;;5.95;3.33;;;;;;;18.76;55.86;94455.19;2962608;40;20360;-83
2021/05/28 07:33:12;;;;;;;11.85;4.43;;;;;;;18.29;57.50;94456.50;2962242;40;20089;-83
2021/05/28 07:35:14;;;;;;;8.25;4.22;;;;;;;17.91;58.91;94446.69;2960997;40;20060;-81
2021/05/28 07:37:16;;;;;;;6.07;4.05;;;;;;;17.90;59.16;94445.88;2961088;40;20301;-82
2021/05/28 07:39:19;;;;;;;12.18;4.20;;;;;;;17.54;60.94;94467.56;2960705;40;20069;-81
2021/05/28 07:41:21;;;;;;;9.98;4.22;;;;;;;17.52;61.02;94470.44;2958801;40;20057;-84
2021/05/28 07:43:23;;;;;;;8.35;4.40;;;;;;;17.12;62.16;94467.03;2959207;40;20089;-83
2021/05/28 07:45:24;;;;;;;7.60;4.72;;;;;;;16.71;62.68;94475.94;2957111;40;20119;-84
2021/05/28 07:47:26;;;;;;;9.55;4.72;;;;;;;16.57;63.46;94465.34;2955237;40;20160;-84
2021/05/28 07:49:28;;;;;;;8.93;4.43;;;;;;;16.42;64.29;94471.84;2963306;40;20092;-81
2021/05/28 07:51:30;;;;;;;15.18;7.78;;;;;;;16.59;64.24;94465.97;2956284;40;20063;-83
2021/05/28 07:53:31;;;;;;;12.35;6.25;;;;;;;16.71;64.38;94466.19;2959917;40;20061;-81
2021/05/28 07:55:33;;;;;;;6.68;4.60;;;;;;;17.04;63.64;94481.28;2959784;40;20051;-83
2021/05/28 07:57:35;;;;;;;9.57;5.85;;;;;;;16.81;63.89;94478.22;2957468;40;20059;-85
2021/05/28 07:59:37;;;;;;;8.15;4.95;;;;;;;16.51;65.35;94476.72;2958150;40;20057;-85
2021/05/28 08:01:39;;;;;;;9.77;6.30;;;;;;;16.46;65.79;94481.00;2960780;40;20092;-84
2021/05/28 08:03:41;;;;;;;9.55;5.85;;;;;;;16.80;65.34;94493.31;2957362;40;20165;-82
2021/05/28 08:05:45;;;;;;;10.95;5.18;;;;;;;16.84;65.07;94488.41;2957727;40;20437;-85
2021/05/28 08:07:48;;;;;;;11.48;5.22;;;;;;;16.84;65.00;94491.84;2960104;40;20154;-82
2021/05/28 08:09:50;;;;;;;7.18;4.88;;;;;;;17.06;64.59;94487.19;2962239;40;20053;-85
2021/05/28 08:11:52;;;;;;;6.78;4.50;;;;;;;17.29;64.02;94488.59;2960258;40;20354;-83
2021/05/28 08:13:53;;;;;;;21.25;5.82;;;;;;;16.78;66.27;94493.47;2957953;40;20049;-82
2021/05/28 08:15:56;;;;;;;13.70;5.15;;;;;;;16.71;67.18;94491.81;2962384;40;20076;-81
2021/05/28 08:17:58;;;;;;;6.72;4.78;;;;;;;16.76;66.96;94497.34;2966577;40;20294;-85
2021/05/28 08:20:00;;;;;;;10.15;5.80;;;;;;;16.51;68.07;94499.72;2963661;40;20150;-83
2021/05/28 08:22:02;;;;;;;12.90;5.22;;;;;;;16.54;67.65;94500.16;2963757;40;20068;-81
2021/05/28 08:24:04;;;;;;;11.73;5.80;;;;;;;16.67;67.00;94504.66;2961327;40;20400;-85
2021/05/28 08:26:06;;;;;;;9.88;6.82;;;;;;;15.87;69.42;94525.50;2956555;40;20073;-84
2021/05/28 08:28:08;;;;;;;12.05;6.43;;;;;;;15.77;67.34;94544.38;2958345;40;20069;-85
2021/05/28 08:30:13;;;;;;;24.58;8.02;;;;;;;15.46;66.94;94543.94;2954795;40;20526;-84
2021/05/28 08:32:15;;;;;;;10.05;8.25;;;;;;;14.82;67.42;94563.31;2956777;40;20070;-84
2021/05/28 08:34:17;;;;;;;12.27;9.10;;;;;;;14.29;69.41;94564.34;2960454;40;20367;-83
2021/05/28 08:36:18;;;;;;;14.40;9.90;;;;;;;14.52;68.41;94561.56;2958851;40;20049;-83
2021/05/28 08:38:20;;;;;;;10.77;9.43;;;;;;;14.53;66.15;94565.81;2958513;40;20064;-83
2021/05/28 08:40:23;;;;;;;14.85;11.48;;;;;;;14.44;66.39;94566.94;2958011;40;20446;-82
2021/05/28 08:42:26;;;;;;;15.95;11.93;;;;;;;14.41;66.16;94577.88;2960122;40;20150;-83
2021/05/28 08:44:28;;;;;;;13.48;12.00;;;;;;;14.07;67.05;94584.56;2955320;40;20207;-84
2021/05/28 08:46:30;;;;;;;13.27;11.90;;;;;;;14.19;66.97;94582.25;2958290;40;20061;-83
2021/05/28 08:48:32;;;;;;;16.17;13.05;;;;;;;14.36;66.89;94589.97;2960468;40;20056;-85
2021/05/28 08:50:34;;;;;;;14.50;12.30;;;;;;;14.42;67.43;94589.22;2958541;40;20041;-86
2021/05/28 08:52:36;;;;;;;15.80;12.93;;;;;;;14.34;68.29;94590.94;2942875;40;20099;-83
2021/05/28 08:54:39;;;;;;;14.52;12.88;;;;;;;14.17;69.79;94597.44;2956312;40;20048;-82
2021/05/28 08:56:41;;;;;;;15.68;12.65;;;;;;;14.26;70.09;94595.50;2957889;40;20137;-82
2021/05/28 08:58:43;;;;;;;14.95;12.43;;;;;;;14.42;70.49;94615.59;2955566;40;20083;-82
2021/05/28 09:00:46;;;;;;;15.23;12.75;;;;;;;14.20;72.58;94610.25;2954395;40;20101;-82
2021/05/28 09:02:48;;;;;;;16.23;12.43;;;;;;;14.27;73.67;94618.25;2954641;40;20660;-85
2021/05/28 09:05:06;;;;;;;14.13;12.57;;;;;;;14.52;72.64;94616.94;2954618;40;20116;-84
2021/05/28 09:07:22;;;;;;;14.82;13.00;;;;;;;14.61;72.56;94625.56;2958251;40;20093;-81
2021/05/28 09:09:24;;;;;;;12.55;11.00;;;;;;;14.72;71.75;94632.19;2960074;40;20057;-85
2021/05/28 09:11:26;;;;;;;16.40;11.55;;;;;;;14.80;72.18;94631.22;2959427;40;20053;-83
2021/05/28 09:13:29;;;;;;;12.82;11.10;;;;;;;14.86;71.02;94626.06;2951271;40;20053;-84
2021/05/28 09:15:30;;;;;;;16.63;12.13;;;;;;;14.87;71.55;94634.78;2956018;40;20060;-84
2021/05/28 09:17:49;;;;;;;14.15;11.93;;;;;;;14.79;71.43;94630.44;2960014;40;20048;-84
2021/05/28 09:19:53;;;;;;;12.82;10.77;;;;;;;14.61;71.18;94645.84;2955658;40;20057;-84
2021/05/28 09:21:58;;;;;;;11.00;9.85;;;;;;;14.65;70.83;94637.38;2957161;40;20334;-83
2021/05/28 09:24:05;;;;;;;11.43;9.60;;;;;;;14.61;70.82;94638.75;2959913;40;20392;-83
2021/05/28 09:26:08;;;;;;;11.82;9.52;;;;;;;14.60;70.94;94652.91;2959975;40;20396;-85
2021/05/28 09:28:11;;;;;;;12.73;10.32;;;;;;;14.73;70.91;94641.72;2957568;40;20053;-84
2021/05/28 09:30:14;;;;;;;11.07;9.73;;;;;;;14.83;70.84;94644.06;2960664;40;20431;-86
2021/05/28 09:32:21;;;;;;;18.85;11.10;;;;;;;14.84;71.06;94643.03;2961554;40;20055;-82